KDFW

Dallas-Fort Worth International Airport

Dallas-Fort Worth, Texas, USA
METAR KDFW 191936Z 34005KT 7SM -RA SCT005 BKN035 OVC060 14/14 A3015 RMK AO2 SCT V BKN P0002 T01440139
Observed Flight Rules
Oct-19 @ 19:36 UTC (15 minutes ago) Visual Flight Rules
Wind Visibility Clouds Conditions
340° at 5 knots 7 miles
  • Scattered at 500' AGL
  • Broken at 3,500' AGL
  • Overcast at 6,000' AGL
  • Light Rain
Temperatures Readings Precipitation
Current 14°C / 57°F
Dewpoint 14°C / 57°F
Humidity 100%
Altimeter 30.15" Hg
Pressure 1021 hPa
Elevation 174
Current Rain 0.02
METAR KDFW 191936Z 34005KT 7SM -RA SCT005 BKN035 OVC060 14/14 A3015 RMK AO2 SCT V BKN P0002 T01440139
Observed Flight Rules
Oct-19 @ 19:36 UTC
(15 minutes ago)
VFR
Wind Visibility
340° at 5 knots 7 miles
Clouds
  • Scattered at 500' AGL
  • Broken at 3,500' AGL
  • Overcast at 6,000' AGL
Conditions
  • Light Rain
Temperature Dewpoint
14°C / 57°F 14°C / 57°F
Humidity Altimeter Pressure
100% 30.15" Hg 1021 hPa
Current Rain
0.02